Time;durP1;ratioP1;P1;durP2;ratioP2;P2;SDS_P1;SDS_P2;PMS_P1;PMS_P2;Temp;Humidity;BMP_temperature;BMP_pressure;BME280_temperature;BME280_humidity;BME280_pressure;Samples;Min_cycle;Max_cycle;Signal;HPM_P1;HPM_P2
2021/03/10 00:05:01;;;;;;;;;;;2.00;99.90;;;;;;13149857;22;19998;-88
2021/03/10 00:10:04;;;;;;;;;;;1.90;99.90;;;;;;13127973;22;19926;-88
2021/03/10 00:15:06;;;;;;;;;;;1.80;99.90;;;;;;13156330;22;19918;-88
2021/03/10 00:20:08;;;;;;;;;;;1.90;99.90;;;;;;13157344;22;19986;-88
2021/03/10 00:25:10;;;;;;;;;;;2.00;99.90;;;;;;13131494;22;19961;-87
2021/03/10 00:30:11;;;;;;;;;;;1.90;99.90;;;;;;13156832;22;20002;-87
2021/03/10 00:35:13;;;;;;;;;;;2.00;99.90;;;;;;13184611;22;19986;-87
2021/03/10 00:40:14;;;;;;;;;;;2.20;99.90;;;;;;13155880;22;19938;-87
2021/03/10 00:45:15;;;;;;;;;;;2.40;99.90;;;;;;13130791;22;20388;-88
2021/03/10 00:50:20;;;;;;;;;;;2.60;99.90;;;;;;13130725;22;19923;-88
2021/03/10 00:55:21;;;;;;;;;;;2.70;99.90;;;;;;13156518;22;19926;-88
2021/03/10 01:00:23;;;;;;;;;;;3.40;99.90;;;;;;13156515;22;19942;-88
2021/03/10 01:05:24;;;;;;;;;;;2.70;99.90;;;;;;13129660;22;19918;-88
2021/03/10 01:10:25;;;;;;;;;;;2.80;99.90;;;;;;13155467;22;19922;-88
2021/03/10 01:15:26;;;;;;;;;;;4.40;99.90;;;;;;13156059;22;19919;-88
2021/03/10 01:20:28;;;;;;;;;;;3.00;99.90;;;;;;13155284;22;20009;-88
2021/03/10 01:25:30;;;;;;;;;;;2.90;99.90;;;;;;13155447;22;20335;-88
2021/03/10 01:30:31;;;;;;;;;;;3.80;99.90;;;;;;13154828;22;19918;-88
2021/03/10 01:35:32;;;;;;;;;;;3.90;99.90;;;;;;13129962;22;19993;-88
2021/03/10 01:40:34;;;;;;;;;;;2.70;99.90;;;;;;13128840;22;19944;-88
2021/03/10 01:45:35;;;;;;;;;;;3.60;99.90;;;;;;13154935;22;20251;-88
2021/03/10 01:50:37;;;;;;;;;;;2.20;99.90;;;;;;13181643;22;20001;-88
2021/03/10 01:55:38;;;;;;;;;;;1.20;99.90;;;;;;13181907;22;19948;-88
2021/03/10 02:00:40;;;;;;;;;;;2.10;99.90;;;;;;13182089;22;20395;-88
2021/03/10 02:05:41;;;;;;;;;;;2.10;99.90;;;;;;13180339;22;20354;-88
2021/03/10 02:10:43;;;;;;;;;;;1.90;99.90;;;;;;13181304;22;19997;-88
2021/03/10 02:15:50;;;;;;;;;;;1.80;99.90;;;;;;13180356;22;20307;-88
2021/03/10 02:20:53;;;;;;;;;;;1.70;99.90;;;;;;13181203;22;19933;-88
2021/03/10 02:26:13;;;;;;;;;;;2.60;99.90;;;;;;13181480;22;19993;-88
2021/03/10 02:31:15;;;;;;;;;;;1.70;99.90;;;;;;13180425;22;19918;-88
2021/03/10 02:36:18;;;;;;;;;;;1.70;99.90;;;;;;13153710;22;19922;-88
2021/03/10 02:41:20;;;;;;;;;;;3.30;99.90;;;;;;13180315;22;19942;-88
2021/03/10 02:46:22;;;;;;;;;;;2.50;99.90;;;;;;13180526;22;19998;-87
2021/03/10 02:51:24;;;;;;;;;;;1.50;99.90;;;;;;13153305;22;20418;-87
2021/03/10 02:56:26;;;;;;;;;;;1.60;99.90;;;;;;13153381;22;20331;-87
2021/03/10 03:01:27;;;;;;;;;;;1.60;99.90;;;;;;13153438;22;20339;-88
2021/03/10 03:06:29;;;;;;;;;;;1.70;99.90;;;;;;13152564;22;19964;-88
2021/03/10 03:11:30;;;;;;;;;;;1.90;99.90;;;;;;13153067;22;19925;-88
2021/03/10 03:16:31;;;;;;;;;;;1.90;99.90;;;;;;13153987;22;19997;-87
2021/03/10 03:21:34;;;;;;;;;;;2.40;99.90;;;;;;13178844;22;19985;-88
2021/03/10 03:26:36;;;;;;;;;;;2.10;99.90;;;;;;13180167;22;19924;-88
2021/03/10 03:31:37;;;;;;;;;;;2.80;99.90;;;;;;13153469;22;19924;-88
2021/03/10 03:36:39;;;;;;;;;;;2.40;99.90;;;;;;13180443;22;20358;-88
2021/03/10 03:41:41;;;;;;;;;;;2.40;99.90;;;;;;13178976;22;19989;-88
2021/03/10 03:46:42;;;;;;;;;;;3.20;99.90;;;;;;13178679;22;20331;-88
2021/03/10 03:51:43;;;;;;;;;;;2.40;99.90;;;;;;13152765;22;20242;-88
2021/03/10 03:56:44;;;;;;;;;;;2.40;99.90;;;;;;13152618;22;19989;-88
2021/03/10 04:01:46;;;;;;;;;;;3.70;99.90;;;;;;13179340;22;19946;-88
2021/03/10 04:06:50;;;;;;;;;;;2.50;99.90;;;;;;13152129;22;20285;-88
2021/03/10 04:11:52;;;;;;;;;;;2.60;99.90;;;;;;13178548;22;20302;-89
2021/03/10 04:16:53;;;;;;;;;;;2.50;99.90;;;;;;13178331;22;19922;-88
2021/03/10 04:21:55;;;;;;;;;;;2.60;99.90;;;;;;13178446;22;19922;-88
2021/03/10 04:26:56;;;;;;;;;;;2.60;99.90;;;;;;13178364;22;19922;-88
2021/03/10 04:31:57;;;;;;;;;;;3.80;99.90;;;;;;13152243;22;19919;-88
2021/03/10 04:36:58;;;;;;;;;;;2.60;99.90;;;;;;13153084;22;19918;-88
2021/03/10 04:42:00;;;;;;;;;;;2.70;99.90;;;;;;13179273;22;19918;-88
2021/03/10 04:47:01;;;;;;;;;;;2.70;99.90;;;;;;13152753;22;19993;-88
2021/03/10 04:52:02;;;;;;;;;;;2.70;99.90;;;;;;13152060;22;19932;-88
2021/03/10 04:57:04;;;;;;;;;;;2.80;99.90;;;;;;13180026;22;20214;-88
2021/03/10 05:02:05;;;;;;;;;;;2.70;99.90;;;;;;13182950;22;19938;-88
2021/03/10 05:07:06;;;;;;;;;;;2.80;99.90;;;;;;13182130;22;19922;-88
2021/03/10 05:12:08;;;;;;;;;;;2.60;99.90;;;;;;13155309;22;20263;-88
2021/03/10 05:17:09;;;;;;;;;;;2.60;99.90;;;;;;13156374;22;19918;-88
2021/03/10 05:22:11;;;;;;;;;;;3.40;99.90;;;;;;13155414;22;19925;-88
2021/03/10 05:27:13;;;;;;;;;;;3.30;99.90;;;;;;13155147;22;20267;-88
2021/03/10 05:32:14;;;;;;;;;;;4.00;99.90;;;;;;13181965;22;19918;-88
2021/03/10 05:37:15;;;;;;;;;;;2.50;99.90;;;;;;13182020;22;19918;-88
2021/03/10 05:42:17;;;;;;;;;;;4.00;99.90;;;;;;13181298;22;19922;-88
2021/03/10 05:47:19;;;;;;;;;;;3.90;99.90;;;;;;13181950;22;19929;-88
2021/03/10 05:52:21;;;;;;;;;;;3.30;99.90;;;;;;13154933;22;20246;-88
2021/03/10 05:57:23;;;;;;;;;;;2.40;99.90;;;;;;13183359;22;19941;-88
2021/03/10 06:02:25;;;;;;;;;;;2.40;99.90;;;;;;13184079;22;19946;-88
2021/03/10 06:07:26;;;;;;;;;;;2.40;99.90;;;;;;13153841;22;20281;-88
2021/03/10 06:12:41;;;;;;;;;;;2.60;99.90;;;;;;13181930;22;20374;-89
2021/03/10 06:17:46;;;;;;;;;;;2.40;99.90;;;;;;13154068;22;19985;-88
2021/03/10 06:22:47;;;;;;;;;;;2.50;99.90;;;;;;13154390;22;20251;-89
2021/03/10 06:27:55;;;;;;;;;;;2.60;99.90;;;;;;13128473;22;19949;-93
2021/03/10 06:33:00;;;;;;;;;;;2.70;99.90;;;;;;13169665;22;19955;-91
2021/03/10 06:38:06;;;;;;;;;;;3.00;99.90;;;;;;13159892;22;19919;-91
2021/03/10 06:43:07;;;;;;;;;;;3.40;99.90;;;;;;13157446;22;19938;-93
2021/03/10 06:48:15;;;;;;;;;;;3.60;99.90;;;;;;13133376;22;20295;-93
2021/03/10 06:53:17;;;;;;;;;;;3.60;99.90;;;;;;13159722;22;19918;-93
2021/03/10 06:58:23;;;;;;;;;;;3.80;99.90;;;;;;13130508;22;20312;-92
2021/03/10 07:03:25;;;;;;;;;;;4.10;99.90;;;;;;13157729;22;19918;-92
2021/03/10 07:08:27;;;;;;;;;;;4.00;99.90;;;;;;13132447;22;19925;-92
2021/03/10 07:13:29;;;;;;;;;;;4.90;99.90;;;;;;13158297;22;19955;-92
2021/03/10 07:18:30;;;;;;;;;;;5.90;99.90;;;;;;13132466;22;19950;-92
2021/03/10 07:23:37;;;;;;;;;;;5.00;99.90;;;;;;13131149;22;19989;-92
2021/03/10 07:28:39;;;;;;;;;;;4.30;99.90;;;;;;13156800;22;19937;-92
2021/03/10 07:33:47;;;;;;;;;;;5.70;99.90;;;;;;13156969;22;20370;-92
2021/03/10 07:38:49;;;;;;;;;;;5.00;99.90;;;;;;13155882;22;19926;-92
2021/03/10 07:43:51;;;;;;;;;;;4.40;99.90;;;;;;13136671;22;19994;-91
2021/03/10 07:48:53;;;;;;;;;;;4.50;99.90;;;;;;13161527;22;19991;-91
2021/03/10 07:53:55;;;;;;;;;;;4.80;99.90;;;;;;13159757;22;20255;-91
2021/03/10 07:59:06;;;;;;;;;;;4.70;99.90;;;;;;13154947;22;19925;-87
2021/03/10 08:04:15;;;;;;;;;;;4.70;99.90;;;;;;13151423;22;19918;-88
2021/03/10 08:09:18;;;;;;;;;;;4.80;99.90;;;;;;13152773;22;19954;-87
2021/03/10 08:14:32;;;;;;;;;;;4.80;99.90;;;;;;13152738;22;19968;-88
2021/03/10 08:19:34;;;;;;;;;;;5.00;99.90;;;;;;13152653;22;19918;-88
2021/03/10 08:24:36;;;;;;;;;;;6.60;99.90;;;;;;13151803;22;20232;-88
2021/03/10 08:29:50;;;;;;;;;;;6.70;99.90;;;;;;13125598;22;19941;-88
2021/03/10 08:34:59;;;;;;;;;;;5.10;99.90;;;;;;13129402;22;20321;-87
2021/03/10 08:40:00;;;;;;;;;;;5.10;99.90;;;;;;13154816;22;20390;-88
2021/03/10 08:45:06;;;;;;;;;;;5.20;99.90;;;;;;13130632;22;19918;-87
2021/03/10 08:50:08;;;;;;;;;;;5.20;99.90;;;;;;13155295;22;20021;-87
2021/03/10 08:55:09;;;;;;;;;;;5.30;99.90;;;;;;13156475;22;19922;-87
2021/03/10 09:00:15;;;;;;;;;;;5.40;99.90;;;;;;13130614;22;19979;-87
2021/03/10 09:05:23;;;;;;;;;;;5.50;99.90;;;;;;13155520;22;19989;-88
2021/03/10 09:10:25;;;;;;;;;;;5.70;99.90;;;;;;13155227;22;20386;-88
2021/03/10 09:15:27;;;;;;;;;;;8.00;99.90;;;;;;13130086;22;19938;-87
2021/03/10 09:20:30;;;;;;;;;;;8.00;99.90;;;;;;13155081;22;19983;-87
2021/03/10 09:25:34;;;;;;;;;;;7.90;99.90;;;;;;13182390;22;20124;-87
2021/03/10 09:30:37;;;;;;;;;;;6.10;99.90;;;;;;13182532;22;20017;-87
2021/03/10 09:35:39;;;;;;;;;;;7.00;99.90;;;;;;13182355;22;19926;-87
2021/03/10 09:40:44;;;;;;;;;;;6.40;99.90;;;;;;13155196;22;19955;-88
2021/03/10 09:45:47;;;;;;;;;;;6.60;99.90;;;;;;13155165;22;19922;-88
2021/03/10 09:51:00;;;;;;;;;;;7.30;99.90;;;;;;13155404;22;20169;-89
2021/03/10 09:56:05;;;;;;;;;;;6.60;99.90;;;;;;13182396;22;19934;-87
2021/03/10 10:01:07;;;;;;;;;;;6.60;99.90;;;;;;13185523;22;19926;-87
2021/03/10 10:06:09;;;;;;;;;;;7.20;99.90;;;;;;13092470;22;19919;-89
2021/03/10 10:11:12;;;;;;;;;;;6.30;99.90;;;;;;13117565;22;19922;-89
2021/03/10 10:16:18;;;;;;;;;;;6.80;99.90;;;;;;13116614;22;19961;-89
2021/03/10 10:21:19;;;;;;;;;;;6.90;99.90;;;;;;13089981;22;19968;-89
2021/03/10 10:26:20;;;;;;;;;;;7.80;99.90;;;;;;13089987;22;20241;-90
2021/03/10 10:31:22;;;;;;;;;;;8.70;99.90;;;;;;13089751;22;19922;-89
2021/03/10 10:36:24;;;;;;;;;;;6.90;99.90;;;;;;13090180;22;19998;-90
2021/03/10 10:41:25;;;;;;;;;;;7.10;99.90;;;;;;13118116;22;19957;-90
2021/03/10 10:46:26;;;;;;;;;;;7.60;99.90;;;;;;13090176;22;19925;-89
2021/03/10 10:51:28;;;;;;;;;;;7.30;99.90;;;;;;13115771;22;19918;-89
2021/03/10 10:56:30;;;;;;;;;;;7.40;99.90;;;;;;13115235;22;19922;-89
2021/03/10 11:01:32;;;;;;;;;;;7.70;99.90;;;;;;13089064;22;20327;-89
2021/03/10 11:06:33;;;;;;;;;;;7.80;99.90;;;;;;13088830;22;19993;-89
2021/03/10 11:11:35;;;;;;;;;;;8.40;99.90;;;;;;13116427;22;20305;-90
2021/03/10 11:16:36;;;;;;;;;;;7.80;99.90;;;;;;13117269;22;19919;-89
2021/03/10 11:21:38;;;;;;;;;;;7.70;99.90;;;;;;13088290;22;19929;-89
2021/03/10 11:26:41;;;;;;;;;;;8.00;99.90;;;;;;13115620;22;20389;-89
2021/03/10 11:31:44;;;;;;;;;;;8.80;99.90;;;;;;13113869;22;20316;-89
2021/03/10 11:36:48;;;;;;;;;;;8.10;99.90;;;;;;13087980;22;19923;-88
2021/03/10 11:41:49;;;;;;;;;;;9.10;99.90;;;;;;13114085;22;19918;-89
2021/03/10 11:46:53;;;;;;;;;;;8.10;99.90;;;;;;13116247;22;19972;-89
2021/03/10 11:51:55;;;;;;;;;;;8.30;99.90;;;;;;13116418;22;19923;-89
2021/03/10 11:56:56;;;;;;;;;;;8.40;99.90;;;;;;13116613;22;19925;-89
2021/03/10 12:01:58;;;;;;;;;;;8.60;99.90;;;;;;13115113;22;19994;-93
2021/03/10 12:25:49;;;;;;;;;;;8.60;99.90;;;;;;13072286;22;19919;-93
2021/03/10 12:30:51;;;;;;;;;;;8.80;99.90;;;;;;13031445;22;19926;-93
2021/03/10 12:35:52;;;;;;;;;;;9.00;99.90;;;;;;13031503;22;19947;-94
2021/03/10 12:40:54;;;;;;;;;;;9.70;99.90;;;;;;13095713;22;19919;-95
2021/03/10 12:45:55;;;;;;;;;;;9.20;99.90;;;;;;13095306;22;19998;-93
2021/03/10 12:50:56;;;;;;;;;;;9.50;99.90;;;;;;13068947;22;19958;-94
2021/03/10 12:55:57;;;;;;;;;;;9.70;99.90;;;;;;13069332;22;19971;-94
2021/03/10 13:00:59;;;;;;;;;;;9.60;99.90;;;;;;13069780;22;19987;-95
2021/03/10 13:06:00;;;;;;;;;;;9.80;99.90;;;;;;13070265;22;19926;-94
2021/03/10 13:11:01;;;;;;;;;;;10.00;99.90;;;;;;13068663;22;19953;-94
2021/03/10 13:16:03;;;;;;;;;;;9.90;99.90;;;;;;13092504;22;19971;-92
2021/03/10 13:21:04;;;;;;;;;;;9.90;99.90;;;;;;13091434;22;19998;-93
2021/03/10 13:26:08;;;;;;;;;;;9.90;99.90;;;;;;13065671;22;19969;-92
2021/03/10 13:31:10;;;;;;;;;;;8.80;99.90;;;;;;13117848;22;20319;-92
2021/03/10 13:36:12;;;;;;;;;;;9.80;99.90;;;;;;13093490;22;19953;-91
2021/03/10 13:41:14;;;;;;;;;;;9.70;99.90;;;;;;13096819;22;20379;-91
2021/03/10 13:46:15;;;;;;;;;;;9.80;99.90;;;;;;13068619;22;19919;-92
2021/03/10 13:51:17;;;;;;;;;;;11.20;99.90;;;;;;13066303;22;19997;-92
2021/03/10 13:56:18;;;;;;;;;;;10.60;99.90;;;;;;13068035;22;19957;-92
2021/03/10 14:01:19;;;;;;;;;;;9.80;99.90;;;;;;13066970;22;19946;-92
2021/03/10 14:06:21;;;;;;;;;;;9.80;99.90;;;;;;13088867;22;19942;-93
2021/03/10 14:11:22;;;;;;;;;;;10.00;99.90;;;;;;13062173;22;19926;-93
2021/03/10 14:16:23;;;;;;;;;;;9.90;99.90;;;;;;13063246;22;20402;-92
2021/03/10 14:21:24;;;;;;;;;;;10.00;99.90;;;;;;13065623;22;19926;-89
2021/03/10 14:26:26;;;;;;;;;;;9.90;99.90;;;;;;13091237;22;19919;-89
2021/03/10 14:31:27;;;;;;;;;;;10.10;99.90;;;;;;13091107;22;20323;-89
2021/03/10 14:36:29;;;;;;;;;;;10.00;99.90;;;;;;13065151;22;19926;-90
2021/03/10 14:41:30;;;;;;;;;;;10.00;99.90;;;;;;13091710;22;19919;-90
2021/03/10 14:46:31;;;;;;;;;;;9.90;99.90;;;;;;13091056;22;19919;-89
2021/03/10 14:51:34;;;;;;;;;;;10.30;99.90;;;;;;13065614;22;20275;-90
2021/03/10 14:56:35;;;;;;;;;;;9.90;99.90;;;;;;13064861;22;19925;-89
2021/03/10 15:01:36;;;;;;;;;;;9.90;99.90;;;;;;13064431;22;19926;-90
2021/03/10 15:06:39;;;;;;;;;;;9.90;99.90;;;;;;13085901;22;19919;-89
2021/03/10 15:11:41;;;;;;;;;;;9.80;99.90;;;;;;13116869;22;19918;-88
2021/03/10 15:16:43;;;;;;;;;;;9.80;99.90;;;;;;13088989;22;19922;-88
2021/03/10 15:21:44;;;;;;;;;;;10.50;99.90;;;;;;13064969;22;20583;-88
2021/03/10 15:26:45;;;;;;;;;;;9.80;99.90;;;;;;13064015;22;19994;-89
2021/03/10 15:31:47;;;;;;;;;;;9.80;99.90;;;;;;13117120;22;20270;-89
2021/03/10 15:36:50;;;;;;;;;;;9.90;99.90;;;;;;13090040;22;20688;-89
2021/03/10 15:41:51;;;;;;;;;;;9.90;99.90;;;;;;13065102;22;19986;-89
2021/03/10 15:46:52;;;;;;;;;;;9.80;99.90;;;;;;13117847;22;19919;-89
2021/03/10 15:51:54;;;;;;;;;;;9.80;99.90;;;;;;13064346;22;19922;-89
2021/03/10 15:56:55;;;;;;;;;;;9.80;99.90;;;;;;13089340;22;20648;-89
2021/03/10 16:01:56;;;;;;;;;;;9.70;99.90;;;;;;13089728;22;19960;-90
2021/03/10 16:06:58;;;;;;;;;;;9.80;99.90;;;;;;13064201;22;20720;-91
2021/03/10 16:11:59;;;;;;;;;;;9.80;99.90;;;;;;13089293;22;19965;-90
2021/03/10 16:17:01;;;;;;;;;;;9.60;99.90;;;;;;13083770;22;19922;-89
2021/03/10 16:22:03;;;;;;;;;;;9.60;99.90;;;;;;13082015;22;19919;-91
2021/03/10 16:27:04;;;;;;;;;;;9.60;99.20;;;;;;13089451;22;19946;-90
2021/03/10 16:32:06;;;;;;;;;;;9.60;99.60;;;;;;13090091;22;19923;-90
2021/03/10 16:37:07;;;;;;;;;;;9.50;99.90;;;;;;13117338;22;20331;-89
2021/03/10 16:42:10;;;;;;;;;;;9.60;99.20;;;;;;13089395;22;20011;-89
2021/03/10 16:47:11;;;;;;;;;;;9.50;99.90;;;;;;13090060;22;19957;-89
2021/03/10 16:52:12;;;;;;;;;;;9.40;99.90;;;;;;13090343;22;19993;-90
2021/03/10 16:57:14;;;;;;;;;;;9.40;99.90;;;;;;13092766;22;20162;-88
2021/03/10 17:02:28;;;;;;;;;;;9.20;99.90;;;;;;13093882;22;19993;-89
2021/03/10 17:07:36;;;;;;;;;;;9.20;99.90;;;;;;13090227;22;19918;-89
2021/03/10 17:12:38;;;;;;;;;;;9.20;99.90;;;;;;13117349;22;19941;-88
2021/03/10 17:17:42;;;;;;;;;;;9.20;99.90;;;;;;13064034;22;20271;-89
2021/03/10 17:22:43;;;;;;;;;;;9.20;99.90;;;;;;13093008;22;19919;-90
2021/03/10 17:27:44;;;;;;;;;;;9.20;99.90;;;;;;13092150;22;19961;-90
2021/03/10 17:32:45;;;;;;;;;;;9.00;99.90;;;;;;13091374;22;20001;-90
2021/03/10 17:37:47;;;;;;;;;;;8.90;99.90;;;;;;13119060;22;19919;-89
2021/03/10 17:42:49;;;;;;;;;;;9.00;99.90;;;;;;13065233;22;20394;-88
2021/03/10 17:47:50;;;;;;;;;;;8.80;99.90;;;;;;13066406;22;19922;-89
2021/03/10 17:52:52;;;;;;;;;;;8.80;99.90;;;;;;13065447;22;19925;-90
2021/03/10 17:58:02;;;;;;;;;;;8.70;99.90;;;;;;13091720;22;20496;-90
2021/03/10 18:03:03;;;;;;;;;;;8.30;99.90;;;;;;13064598;22;19919;-87
2021/03/10 18:08:05;;;;;;;;;;;8.30;99.90;;;;;;13118329;22;19919;-87
2021/03/10 18:13:06;;;;;;;;;;;8.10;99.90;;;;;;13119384;22;19950;-85
2021/03/10 18:18:08;;;;;;;;;;;8.10;99.90;;;;;;13088719;22;20331;-87
2021/03/10 18:23:10;;;;;;;;;;;7.90;99.90;;;;;;13120136;22;19922;-87
2021/03/10 18:28:11;;;;;;;;;;;8.10;99.90;;;;;;13117445;22;20295;-87
2021/03/10 18:33:12;;;;;;;;;;;7.80;99.90;;;;;;13117912;22;19918;-87
2021/03/10 18:38:16;;;;;;;;;;;7.80;99.90;;;;;;13118885;22;19919;-87
2021/03/10 18:43:18;;;;;;;;;;;8.00;99.90;;;;;;13116434;22;20396;-87
2021/03/10 18:48:19;;;;;;;;;;;8.50;99.90;;;;;;13117162;22;19946;-87
2021/03/10 18:53:21;;;;;;;;;;;8.10;99.90;;;;;;13118923;22;19942;-87
2021/03/10 18:58:24;;;;;;;;;;;8.10;99.90;;;;;;13116474;22;19994;-87
2021/03/10 19:03:25;;;;;;;;;;;8.10;99.90;;;;;;13114262;22;19990;-87
2021/03/10 19:08:27;;;;;;;;;;;8.10;99.90;;;;;;13110098;22;20295;-87
2021/03/10 19:13:28;;;;;;;;;;;8.10;99.90;;;;;;13114834;22;20355;-86
2021/03/10 19:18:32;;;;;;;;;;;9.50;99.90;;;;;;13115846;22;20251;-87
2021/03/10 19:23:34;;;;;;;;;;;9.30;99.90;;;;;;13116789;22;19923;-87
2021/03/10 19:28:36;;;;;;;;;;;7.60;99.90;;;;;;13110863;22;20322;-87
2021/03/10 19:33:37;;;;;;;;;;;7.40;99.90;;;;;;13116113;22;19953;-87
2021/03/10 19:38:38;;;;;;;;;;;7.30;99.90;;;;;;13089565;22;19982;-87
2021/03/10 19:43:40;;;;;;;;;;;7.20;99.90;;;;;;13115764;22;19955;-87
2021/03/10 19:48:41;;;;;;;;;;;8.60;99.90;;;;;;13117198;22;19918;-87
2021/03/10 19:53:43;;;;;;;;;;;8.00;99.90;;;;;;13088672;22;19918;-87
2021/03/10 19:58:44;;;;;;;;;;;8.30;99.90;;;;;;13111964;22;19929;-87
2021/03/10 20:03:45;;;;;;;;;;;7.60;99.90;;;;;;13116633;22;20343;-88
2021/03/10 20:08:47;;;;;;;;;;;6.90;99.90;;;;;;13116567;22;19997;-87
2021/03/10 20:13:48;;;;;;;;;;;6.80;99.90;;;;;;13089265;22;19982;-88
2021/03/10 20:18:50;;;;;;;;;;;6.80;99.90;;;;;;13117064;22;20382;-88
2021/03/10 20:23:51;;;;;;;;;;;6.80;99.90;;;;;;13116410;22;19942;-87
2021/03/10 20:28:53;;;;;;;;;;;6.60;99.90;;;;;;13119913;22;19919;-87
2021/03/10 20:33:55;;;;;;;;;;;6.70;99.90;;;;;;13121623;22;19930;-87
2021/03/10 20:38:56;;;;;;;;;;;6.60;99.90;;;;;;13091159;22;19941;-87
2021/03/10 20:43:58;;;;;;;;;;;6.50;99.90;;;;;;13114592;22;19958;-88
2021/03/10 20:48:59;;;;;;;;;;;7.00;99.90;;;;;;13113363;22;19965;-87
2021/03/10 20:54:01;;;;;;;;;;;8.00;99.90;;;;;;13116127;22;20244;-86
2021/03/10 20:59:02;;;;;;;;;;;6.40;99.90;;;;;;13092609;22;19918;-87
2021/03/10 21:04:04;;;;;;;;;;;6.60;99.90;;;;;;13118392;22;20001;-88
2021/03/10 21:09:06;;;;;;;;;;;6.40;99.90;;;;;;13118044;22;20419;-87
2021/03/10 21:14:07;;;;;;;;;;;6.40;99.90;;;;;;13119187;22;19946;-87
2021/03/10 21:19:09;;;;;;;;;;;6.50;99.90;;;;;;13085243;22;19994;-87
2021/03/10 21:24:10;;;;;;;;;;;6.50;99.90;;;;;;13116885;22;19945;-87
2021/03/10 21:29:12;;;;;;;;;;;6.60;99.90;;;;;;13118206;22;19957;-87
2021/03/10 21:34:13;;;;;;;;;;;8.00;99.90;;;;;;13093065;22;19919;-86
2021/03/10 21:39:15;;;;;;;;;;;7.10;99.90;;;;;;13117337;22;20588;-87
2021/03/10 21:44:16;;;;;;;;;;;6.40;99.90;;;;;;13118441;22;19942;-87
2021/03/10 21:49:17;;;;;;;;;;;7.00;99.90;;;;;;13092765;22;19919;-87
2021/03/10 21:54:18;;;;;;;;;;;6.40;99.90;;;;;;13117345;22;19985;-87
2021/03/10 21:59:20;;;;;;;;;;;6.50;99.90;;;;;;13118845;22;19946;-87
2021/03/10 22:04:22;;;;;;;;;;;6.40;99.90;;;;;;13116985;22;20013;-87
2021/03/10 22:09:23;;;;;;;;;;;6.40;99.90;;;;;;13116945;22;19918;-87
2021/03/10 22:14:24;;;;;;;;;;;6.30;99.90;;;;;;13119032;22;19982;-87
2021/03/10 22:19:26;;;;;;;;;;;5.50;99.90;;;;;;13118632;22;19942;-87
2021/03/10 22:24:37;;;;;;;;;;;6.20;99.90;;;;;;13115750;22;19953;-86
2021/03/10 22:35:37;;;;;;;;;;;6.20;99.90;;;;;;13119105;22;19907;-87
2021/03/10 22:40:38;;;;;;;;;;;6.30;99.90;;;;;;13091658;22;19942;-87
2021/03/10 22:45:40;;;;;;;;;;;6.20;99.90;;;;;;13117373;22;20366;-87
2021/03/10 22:50:42;;;;;;;;;;;6.20;99.90;;;;;;13117734;22;20279;-87
2021/03/10 22:55:43;;;;;;;;;;;7.30;99.90;;;;;;13116958;22;19919;-87
2021/03/10 23:00:44;;;;;;;;;;;7.10;99.90;;;;;;13091974;22;19957;-86
2021/03/10 23:05:46;;;;;;;;;;;8.10;99.90;;;;;;13090821;22;19989;-87
2021/03/10 23:10:47;;;;;;;;;;;6.20;99.90;;;;;;13116713;22;20318;-87
2021/03/10 23:15:49;;;;;;;;;;;7.60;99.90;;;;;;13091441;22;19949;-87
2021/03/10 23:20:50;;;;;;;;;;;7.20;99.90;;;;;;13116578;22;20662;-87
2021/03/10 23:25:51;;;;;;;;;;;7.20;99.90;;;;;;13090357;22;19934;-87
2021/03/10 23:30:53;;;;;;;;;;;7.20;99.90;;;;;;13116191;22;20287;-87
2021/03/10 23:35:54;;;;;;;;;;;6.40;99.90;;;;;;13116319;22;19990;-87
2021/03/10 23:40:55;;;;;;;;;;;6.90;99.90;;;;;;13117270;22;19989;-87
2021/03/10 23:45:57;;;;;;;;;;;6.20;99.90;;;;;;13091319;22;19954;-87
2021/03/10 23:50:59;;;;;;;;;;;6.60;99.90;;;;;;13090162;22;20291;-87
2021/03/10 23:56:00;;;;;;;;;;;7.20;99.90;;;;;;13117028;22;19918;-87
